sensor_id;sensor_type;location;lat;lon;timestamp;P1;durP1;ratioP1;P2;durP2;ratioP2
32094;SDS011;18608;53.688;10.748;2022-10-26T00:03:37;14.10;;;7.20;;
32094;SDS011;18608;53.688;10.748;2022-10-26T00:06:19;16.50;;;7.10;;
32094;SDS011;18608;53.688;10.748;2022-10-26T00:08:48;10.30;;;6.63;;
32094;SDS011;18608;53.688;10.748;2022-10-26T00:11:14;10.60;;;6.90;;
32094;SDS011;18608;53.688;10.748;2022-10-26T00:13:41;11.43;;;6.77;;
32094;SDS011;18608;53.688;10.748;2022-10-26T00:16:07;11.93;;;7.40;;
32094;SDS011;18608;53.688;10.748;2022-10-26T00:18:37;9.23;;;5.53;;
32094;SDS011;18608;53.688;10.748;2022-10-26T00:21:04;8.00;;;6.43;;
32094;SDS011;18608;53.688;10.748;2022-10-26T00:23:31;14.80;;;6.83;;
32094;SDS011;18608;53.688;10.748;2022-10-26T00:25:57;13.33;;;5.90;;
32094;SDS011;18608;53.688;10.748;2022-10-26T00:28:23;9.10;;;6.10;;
32094;SDS011;18608;53.688;10.748;2022-10-26T00:30:49;9.73;;;6.27;;
32094;SDS011;18608;53.688;10.748;2022-10-26T00:33:14;9.17;;;6.17;;
32094;SDS011;18608;53.688;10.748;2022-10-26T00:35:40;14.47;;;6.87;;
32094;SDS011;18608;53.688;10.748;2022-10-26T00:38:06;9.13;;;6.10;;
32094;SDS011;18608;53.688;10.748;2022-10-26T00:40:31;13.93;;;7.83;;
32094;SDS011;18608;53.688;10.748;2022-10-26T00:42:57;11.97;;;6.47;;
32094;SDS011;18608;53.688;10.748;2022-10-26T00:45:26;12.40;;;6.47;;
32094;SDS011;18608;53.688;10.748;2022-10-26T00:47:57;9.60;;;5.60;;
32094;SDS011;18608;53.688;10.748;2022-10-26T00:52:58;10.13;;;5.97;;
32094;SDS011;18608;53.688;10.748;2022-10-26T00:55:28;8.63;;;6.53;;
32094;SDS011;18608;53.688;10.748;2022-10-26T00:57:56;18.07;;;7.87;;
32094;SDS011;18608;53.688;10.748;2022-10-26T01:00:23;10.90;;;7.30;;
32094;SDS011;18608;53.688;10.748;2022-10-26T01:02:49;8.10;;;5.60;;
32094;SDS011;18608;53.688;10.748;2022-10-26T01:05:17;17.20;;;6.90;;
32094;SDS011;18608;53.688;10.748;2022-10-26T01:07:43;17.53;;;5.73;;
32094;SDS011;18608;53.688;10.748;2022-10-26T01:10:11;12.43;;;7.27;;
32094;SDS011;18608;53.688;10.748;2022-10-26T01:12:38;12.27;;;6.60;;
32094;SDS011;18608;53.688;10.748;2022-10-26T01:15:04;16.23;;;7.83;;
32094;SDS011;18608;53.688;10.748;2022-10-26T01:17:38;18.23;;;7.33;;
32094;SDS011;18608;53.688;10.748;2022-10-26T01:20:34;12.30;;;7.30;;
32094;SDS011;18608;53.688;10.748;2022-10-26T01:23:07;8.40;;;6.00;;
32094;SDS011;18608;53.688;10.748;2022-10-26T01:31:10;12.83;;;6.77;;
32094;SDS011;18608;53.688;10.748;2022-10-26T01:33:43;11.00;;;7.63;;
32094;SDS011;18608;53.688;10.748;2022-10-26T01:36:29;14.33;;;6.93;;
32094;SDS011;18608;53.688;10.748;2022-10-26T01:39:05;9.23;;;6.20;;
32094;SDS011;18608;53.688;10.748;2022-10-26T01:41:42;13.70;;;7.80;;
32094;SDS011;18608;53.688;10.748;2022-10-26T01:44:25;29.23;;;7.43;;
32094;SDS011;18608;53.688;10.748;2022-10-26T01:46:53;15.23;;;7.40;;
32094;SDS011;18608;53.688;10.748;2022-10-26T01:49:22;15.10;;;7.70;;
32094;SDS011;18608;53.688;10.748;2022-10-26T01:51:51;10.13;;;7.80;;
32094;SDS011;18608;53.688;10.748;2022-10-26T01:54:17;10.87;;;6.80;;
32094;SDS011;18608;53.688;10.748;2022-10-26T01:56:44;10.60;;;7.27;;
32094;SDS011;18608;53.688;10.748;2022-10-26T02:07:23;17.27;;;7.50;;
32094;SDS011;18608;53.688;10.748;2022-10-26T02:09:53;8.70;;;5.50;;
32094;SDS011;18608;53.688;10.748;2022-10-26T02:15:33;9.73;;;6.70;;
32094;SDS011;18608;53.688;10.748;2022-10-26T02:18:22;12.67;;;8.03;;
32094;SDS011;18608;53.688;10.748;2022-10-26T02:20:57;14.33;;;7.73;;
32094;SDS011;18608;53.688;10.748;2022-10-26T02:23:27;9.50;;;7.00;;
32094;SDS011;18608;53.688;10.748;2022-10-26T02:25:56;12.10;;;7.27;;
32094;SDS011;18608;53.688;10.748;2022-10-26T02:28:24;33.30;;;9.40;;
32094;SDS011;18608;53.688;10.748;2022-10-26T02:30:55;11.17;;;7.73;;
32094;SDS011;18608;53.688;10.748;2022-10-26T02:33:23;12.77;;;7.83;;
32094;SDS011;18608;53.688;10.748;2022-10-26T02:35:54;11.73;;;6.90;;
32094;SDS011;18608;53.688;10.748;2022-10-26T02:38:22;16.23;;;7.00;;
32094;SDS011;18608;53.688;10.748;2022-10-26T02:40:50;11.30;;;7.33;;
32094;SDS011;18608;53.688;10.748;2022-10-26T02:43:17;19.07;;;7.70;;
32094;SDS011;18608;53.688;10.748;2022-10-26T02:45:56;17.20;;;7.63;;
32094;SDS011;18608;53.688;10.748;2022-10-26T02:48:29;18.97;;;8.30;;
32094;SDS011;18608;53.688;10.748;2022-10-26T02:51:38;11.30;;;8.13;;
32094;SDS011;18608;53.688;10.748;2022-10-26T02:53:53;16.27;;;9.30;;
32094;SDS011;18608;53.688;10.748;2022-10-26T02:56:29;12.87;;;8.70;;
32094;SDS011;18608;53.688;10.748;2022-10-26T02:59:00;14.40;;;7.87;;
32094;SDS011;18608;53.688;10.748;2022-10-26T03:01:29;21.10;;;9.43;;
32094;SDS011;18608;53.688;10.748;2022-10-26T03:03:57;12.03;;;9.47;;
32094;SDS011;18608;53.688;10.748;2022-10-26T03:06:23;15.10;;;8.53;;
32094;SDS011;18608;53.688;10.748;2022-10-26T03:08:49;17.30;;;9.07;;
32094;SDS011;18608;53.688;10.748;2022-10-26T03:11:15;17.07;;;9.10;;
32094;SDS011;18608;53.688;10.748;2022-10-26T03:13:41;14.97;;;9.33;;
32094;SDS011;18608;53.688;10.748;2022-10-26T03:16:07;17.67;;;9.93;;
32094;SDS011;18608;53.688;10.748;2022-10-26T03:18:33;16.10;;;7.57;;
32094;SDS011;18608;53.688;10.748;2022-10-26T03:20:58;16.53;;;7.87;;
32094;SDS011;18608;53.688;10.748;2022-10-26T03:23:24;18.00;;;9.30;;
32094;SDS011;18608;53.688;10.748;2022-10-26T03:25:50;15.93;;;9.60;;
32094;SDS011;18608;53.688;10.748;2022-10-26T03:28:16;16.53;;;9.10;;
32094;SDS011;18608;53.688;10.748;2022-10-26T03:30:41;15.33;;;8.80;;
32094;SDS011;18608;53.688;10.748;2022-10-26T03:33:07;18.20;;;8.03;;
32094;SDS011;18608;53.688;10.748;2022-10-26T03:35:33;14.17;;;8.27;;
32094;SDS011;18608;53.688;10.748;2022-10-26T03:37:59;22.87;;;9.77;;
32094;SDS011;18608;53.688;10.748;2022-10-26T03:40:24;13.33;;;7.70;;
32094;SDS011;18608;53.688;10.748;2022-10-26T03:42:50;14.67;;;8.20;;
32094;SDS011;18608;53.688;10.748;2022-10-26T03:45:15;21.53;;;7.73;;
32094;SDS011;18608;53.688;10.748;2022-10-26T03:47:45;17.30;;;7.40;;
32094;SDS011;18608;53.688;10.748;2022-10-26T03:50:12;19.97;;;7.70;;
32094;SDS011;18608;53.688;10.748;2022-10-26T03:52:39;12.73;;;8.00;;
32094;SDS011;18608;53.688;10.748;2022-10-26T03:55:05;12.90;;;7.17;;
32094;SDS011;18608;53.688;10.748;2022-10-26T03:57:31;12.63;;;7.50;;
32094;SDS011;18608;53.688;10.748;2022-10-26T03:59:57;13.50;;;7.97;;
32094;SDS011;18608;53.688;10.748;2022-10-26T04:02:23;13.70;;;8.27;;
32094;SDS011;18608;53.688;10.748;2022-10-26T04:04:48;17.83;;;8.33;;
32094;SDS011;18608;53.688;10.748;2022-10-26T04:07:14;15.50;;;7.73;;
32094;SDS011;18608;53.688;10.748;2022-10-26T04:09:39;21.53;;;8.97;;
32094;SDS011;18608;53.688;10.748;2022-10-26T04:12:05;16.13;;;8.90;;
32094;SDS011;18608;53.688;10.748;2022-10-26T04:14:31;13.00;;;7.20;;
32094;SDS011;18608;53.688;10.748;2022-10-26T04:16:56;19.67;;;7.27;;
32094;SDS011;18608;53.688;10.748;2022-10-26T04:19:22;12.63;;;6.90;;
32094;SDS011;18608;53.688;10.748;2022-10-26T04:21:49;11.10;;;6.93;;
32094;SDS011;18608;53.688;10.748;2022-10-26T04:24:16;14.30;;;8.00;;
32094;SDS011;18608;53.688;10.748;2022-10-26T04:26:41;15.30;;;7.90;;
32094;SDS011;18608;53.688;10.748;2022-10-26T04:29:09;17.60;;;8.40;;
32094;SDS011;18608;53.688;10.748;2022-10-26T04:31:35;17.67;;;7.77;;
32094;SDS011;18608;53.688;10.748;2022-10-26T04:34:01;22.73;;;7.60;;
32094;SDS011;18608;53.688;10.748;2022-10-26T04:36:26;18.87;;;9.10;;
32094;SDS011;18608;53.688;10.748;2022-10-26T04:38:52;12.67;;;7.77;;
32094;SDS011;18608;53.688;10.748;2022-10-26T04:41:17;12.50;;;7.97;;
32094;SDS011;18608;53.688;10.748;2022-10-26T04:43:43;13.90;;;8.47;;
32094;SDS011;18608;53.688;10.748;2022-10-26T04:46:09;19.00;;;8.73;;
32094;SDS011;18608;53.688;10.748;2022-10-26T04:48:37;15.07;;;8.80;;
32094;SDS011;18608;53.688;10.748;2022-10-26T04:51:03;15.10;;;8.57;;
32094;SDS011;18608;53.688;10.748;2022-10-26T04:53:28;20.33;;;9.13;;
32094;SDS011;18608;53.688;10.748;2022-10-26T04:55:57;17.20;;;9.00;;
32094;SDS011;18608;53.688;10.748;2022-10-26T04:58:24;17.90;;;8.80;;
32094;SDS011;18608;53.688;10.748;2022-10-26T05:00:50;16.03;;;8.47;;
32094;SDS011;18608;53.688;10.748;2022-10-26T05:03:15;17.70;;;8.77;;
32094;SDS011;18608;53.688;10.748;2022-10-26T05:05:41;14.53;;;8.73;;
32094;SDS011;18608;53.688;10.748;2022-10-26T05:08:07;27.90;;;9.40;;
32094;SDS011;18608;53.688;10.748;2022-10-26T05:10:32;16.20;;;8.63;;
32094;SDS011;18608;53.688;10.748;2022-10-26T05:12:59;17.60;;;10.10;;
32094;SDS011;18608;53.688;10.748;2022-10-26T05:15:26;18.37;;;11.30;;
32094;SDS011;18608;53.688;10.748;2022-10-26T05:17:56;21.17;;;11.67;;
32094;SDS011;18608;53.688;10.748;2022-10-26T05:20:23;23.67;;;10.70;;
32094;SDS011;18608;53.688;10.748;2022-10-26T05:22:55;21.00;;;10.53;;
32094;SDS011;18608;53.688;10.748;2022-10-26T05:25:22;19.93;;;10.63;;
32094;SDS011;18608;53.688;10.748;2022-10-26T05:27:48;19.30;;;10.57;;
32094;SDS011;18608;53.688;10.748;2022-10-26T05:30:14;18.90;;;11.57;;
32094;SDS011;18608;53.688;10.748;2022-10-26T05:32:39;21.23;;;11.83;;
32094;SDS011;18608;53.688;10.748;2022-10-26T05:35:05;27.23;;;12.00;;
32094;SDS011;18608;53.688;10.748;2022-10-26T05:37:31;20.23;;;11.57;;
32094;SDS011;18608;53.688;10.748;2022-10-26T05:39:56;23.17;;;11.50;;
32094;SDS011;18608;53.688;10.748;2022-10-26T05:42:22;19.60;;;10.37;;
32094;SDS011;18608;53.688;10.748;2022-10-26T05:44:49;19.77;;;11.90;;
32094;SDS011;18608;53.688;10.748;2022-10-26T05:47:15;21.07;;;12.33;;
32094;SDS011;18608;53.688;10.748;2022-10-26T05:49:40;23.63;;;11.37;;
32094;SDS011;18608;53.688;10.748;2022-10-26T05:52:06;21.00;;;11.90;;
32094;SDS011;18608;53.688;10.748;2022-10-26T05:54:31;17.93;;;10.80;;
32094;SDS011;18608;53.688;10.748;2022-10-26T05:56:57;21.40;;;12.87;;
32094;SDS011;18608;53.688;10.748;2022-10-26T05:59:23;18.73;;;10.90;;
32094;SDS011;18608;53.688;10.748;2022-10-26T06:01:51;19.63;;;11.40;;
32094;SDS011;18608;53.688;10.748;2022-10-26T06:04:36;29.27;;;10.53;;
32094;SDS011;18608;53.688;10.748;2022-10-26T06:07:02;32.57;;;11.97;;
32094;SDS011;18608;53.688;10.748;2022-10-26T06:09:34;17.33;;;10.23;;
32094;SDS011;18608;53.688;10.748;2022-10-26T06:12:00;21.97;;;9.40;;
32094;SDS011;18608;53.688;10.748;2022-10-26T06:14:26;18.30;;;9.70;;
32094;SDS011;18608;53.688;10.748;2022-10-26T06:16:56;17.47;;;10.73;;
32094;SDS011;18608;53.688;10.748;2022-10-26T06:31:01;21.80;;;11.80;;
32094;SDS011;18608;53.688;10.748;2022-10-26T06:33:26;20.97;;;11.87;;
32094;SDS011;18608;53.688;10.748;2022-10-26T06:36:00;41.17;;;17.93;;
32094;SDS011;18608;53.688;10.748;2022-10-26T06:38:47;31.60;;;19.03;;
32094;SDS011;18608;53.688;10.748;2022-10-26T06:41:16;35.97;;;21.23;;
32094;SDS011;18608;53.688;10.748;2022-10-26T06:43:44;44.30;;;24.80;;
32094;SDS011;18608;53.688;10.748;2022-10-26T06:49:12;38.17;;;23.83;;
32094;SDS011;18608;53.688;10.748;2022-10-26T06:51:58;45.40;;;25.20;;
32094;SDS011;18608;53.688;10.748;2022-10-26T06:54:49;42.80;;;25.50;;
32094;SDS011;18608;53.688;10.748;2022-10-26T06:57:17;43.57;;;24.10;;
32094;SDS011;18608;53.688;10.748;2022-10-26T07:02:32;29.57;;;18.67;;
32094;SDS011;18608;53.688;10.748;2022-10-26T07:04:58;29.93;;;18.00;;
32094;SDS011;18608;53.688;10.748;2022-10-26T07:07:24;31.60;;;18.30;;
32094;SDS011;18608;53.688;10.748;2022-10-26T07:09:51;33.47;;;19.70;;
32094;SDS011;18608;53.688;10.748;2022-10-26T07:12:17;38.83;;;19.17;;
32094;SDS011;18608;53.688;10.748;2022-10-26T07:14:43;31.67;;;17.70;;
32094;SDS011;18608;53.688;10.748;2022-10-26T07:17:08;29.30;;;17.83;;
32094;SDS011;18608;53.688;10.748;2022-10-26T07:19:34;33.30;;;18.43;;
32094;SDS011;18608;53.688;10.748;2022-10-26T07:22:00;32.67;;;19.20;;
32094;SDS011;18608;53.688;10.748;2022-10-26T07:24:26;38.83;;;20.90;;
32094;SDS011;18608;53.688;10.748;2022-10-26T07:26:53;33.60;;;18.53;;
32094;SDS011;18608;53.688;10.748;2022-10-26T07:29:19;46.17;;;26.80;;
32094;SDS011;18608;53.688;10.748;2022-10-26T07:31:46;66.80;;;41.17;;
32094;SDS011;18608;53.688;10.748;2022-10-26T07:34:11;66.20;;;41.17;;
32094;SDS011;18608;53.688;10.748;2022-10-26T07:36:37;67.60;;;41.77;;
32094;SDS011;18608;53.688;10.748;2022-10-26T07:39:03;59.03;;;36.03;;
32094;SDS011;18608;53.688;10.748;2022-10-26T07:41:29;60.03;;;34.40;;
32094;SDS011;18608;53.688;10.748;2022-10-26T07:43:55;53.77;;;32.20;;
32094;SDS011;18608;53.688;10.748;2022-10-26T07:46:21;47.07;;;29.40;;
32094;SDS011;18608;53.688;10.748;2022-10-26T07:48:47;49.17;;;28.27;;
32094;SDS011;18608;53.688;10.748;2022-10-26T07:51:12;44.07;;;25.93;;
32094;SDS011;18608;53.688;10.748;2022-10-26T07:53:38;49.03;;;24.10;;
32094;SDS011;18608;53.688;10.748;2022-10-26T07:56:04;33.80;;;20.40;;
32094;SDS011;18608;53.688;10.748;2022-10-26T07:58:30;42.03;;;20.63;;
32094;SDS011;18608;53.688;10.748;2022-10-26T08:00:57;34.23;;;19.03;;
32094;SDS011;18608;53.688;10.748;2022-10-26T08:03:23;30.97;;;17.47;;
32094;SDS011;18608;53.688;10.748;2022-10-26T08:05:48;29.77;;;18.10;;
32094;SDS011;18608;53.688;10.748;2022-10-26T08:08:15;33.40;;;17.80;;
32094;SDS011;18608;53.688;10.748;2022-10-26T08:10:42;27.27;;;17.37;;
32094;SDS011;18608;53.688;10.748;2022-10-26T08:13:09;28.87;;;16.53;;
32094;SDS011;18608;53.688;10.748;2022-10-26T08:15:35;27.10;;;16.70;;
32094;SDS011;18608;53.688;10.748;2022-10-26T08:18:01;30.67;;;15.10;;
32094;SDS011;18608;53.688;10.748;2022-10-26T08:20:27;23.10;;;13.20;;
32094;SDS011;18608;53.688;10.748;2022-10-26T08:22:56;20.20;;;13.07;;
32094;SDS011;18608;53.688;10.748;2022-10-26T08:25:23;20.43;;;11.60;;
32094;SDS011;18608;53.688;10.748;2022-10-26T08:27:48;19.80;;;11.70;;
32094;SDS011;18608;53.688;10.748;2022-10-26T08:30:14;15.17;;;11.20;;
32094;SDS011;18608;53.688;10.748;2022-10-26T08:32:41;19.70;;;11.30;;
32094;SDS011;18608;53.688;10.748;2022-10-26T08:35:07;15.10;;;9.00;;
32094;SDS011;18608;53.688;10.748;2022-10-26T08:37:33;18.87;;;10.43;;
32094;SDS011;18608;53.688;10.748;2022-10-26T08:39:59;15.60;;;9.43;;
32094;SDS011;18608;53.688;10.748;2022-10-26T08:42:33;15.27;;;9.93;;
32094;SDS011;18608;53.688;10.748;2022-10-26T08:45:25;15.20;;;9.77;;
32094;SDS011;18608;53.688;10.748;2022-10-26T08:47:57;14.43;;;8.70;;
32094;SDS011;18608;53.688;10.748;2022-10-26T08:50:34;14.10;;;8.57;;
32094;SDS011;18608;53.688;10.748;2022-10-26T08:56:05;12.80;;;7.77;;
32094;SDS011;18608;53.688;10.748;2022-10-26T08:59:01;12.47;;;9.00;;
32094;SDS011;18608;53.688;10.748;2022-10-26T09:01:34;14.53;;;8.60;;
32094;SDS011;18608;53.688;10.748;2022-10-26T09:04:01;16.70;;;7.77;;
32094;SDS011;18608;53.688;10.748;2022-10-26T09:25:39;10.97;;;7.43;;
32094;SDS011;18608;53.688;10.748;2022-10-26T09:28:10;19.73;;;7.93;;
32094;SDS011;18608;53.688;10.748;2022-10-26T09:30:40;17.60;;;9.10;;
32094;SDS011;18608;53.688;10.748;2022-10-26T09:33:16;13.60;;;9.00;;
32094;SDS011;18608;53.688;10.748;2022-10-26T09:46:21;10.03;;;6.70;;
32094;SDS011;18608;53.688;10.748;2022-10-26T09:48:53;23.47;;;8.63;;
32094;SDS011;18608;53.688;10.748;2022-10-26T09:51:22;17.13;;;7.17;;
32094;SDS011;18608;53.688;10.748;2022-10-26T09:53:47;9.87;;;6.50;;
32094;SDS011;18608;53.688;10.748;2022-10-26T09:56:14;10.10;;;6.87;;
32094;SDS011;18608;53.688;10.748;2022-10-26T09:58:43;10.73;;;5.53;;
32094;SDS011;18608;53.688;10.748;2022-10-26T10:01:21;15.40;;;6.93;;
32094;SDS011;18608;53.688;10.748;2022-10-26T10:06:41;7.77;;;5.63;;
32094;SDS011;18608;53.688;10.748;2022-10-26T10:09:09;7.93;;;6.57;;
32094;SDS011;18608;53.688;10.748;2022-10-26T10:11:42;9.07;;;6.40;;
32094;SDS011;18608;53.688;10.748;2022-10-26T10:14:16;9.10;;;6.70;;
32094;SDS011;18608;53.688;10.748;2022-10-26T10:16:51;9.60;;;6.40;;
32094;SDS011;18608;53.688;10.748;2022-10-26T10:21:55;10.33;;;6.00;;
32094;SDS011;18608;53.688;10.748;2022-10-26T10:24:24;8.23;;;5.90;;
32094;SDS011;18608;53.688;10.748;2022-10-26T10:27:04;14.27;;;5.67;;
32094;SDS011;18608;53.688;10.748;2022-10-26T10:29:40;8.80;;;6.30;;
32094;SDS011;18608;53.688;10.748;2022-10-26T10:32:15;14.73;;;7.27;;
32094;SDS011;18608;53.688;10.748;2022-10-26T10:34:40;15.40;;;5.80;;
32094;SDS011;18608;53.688;10.748;2022-10-26T10:37:13;7.60;;;5.90;;
32094;SDS011;18608;53.688;10.748;2022-10-26T10:40:08;12.73;;;5.37;;
32094;SDS011;18608;53.688;10.748;2022-10-26T10:42:42;11.30;;;5.43;;
32094;SDS011;18608;53.688;10.748;2022-10-26T10:45:19;10.93;;;5.80;;
32094;SDS011;18608;53.688;10.748;2022-10-26T10:50:29;8.43;;;5.90;;
32094;SDS011;18608;53.688;10.748;2022-10-26T10:53:15;12.17;;;5.90;;
32094;SDS011;18608;53.688;10.748;2022-10-26T10:55:57;7.57;;;5.47;;
32094;SDS011;18608;53.688;10.748;2022-10-26T11:01:09;11.20;;;5.07;;
32094;SDS011;18608;53.688;10.748;2022-10-26T11:03:44;12.10;;;5.40;;
32094;SDS011;18608;53.688;10.748;2022-10-26T11:06:19;6.77;;;4.20;;
32094;SDS011;18608;53.688;10.748;2022-10-26T11:11:40;4.87;;;4.37;;
32094;SDS011;18608;53.688;10.748;2022-10-26T11:14:16;6.00;;;4.60;;
32094;SDS011;18608;53.688;10.748;2022-10-26T11:16:55;7.50;;;3.87;;
32094;SDS011;18608;53.688;10.748;2022-10-26T11:19:25;10.73;;;4.37;;
32094;SDS011;18608;53.688;10.748;2022-10-26T11:22:00;8.03;;;4.50;;
32094;SDS011;18608;53.688;10.748;2022-10-26T11:24:41;11.63;;;3.90;;
32094;SDS011;18608;53.688;10.748;2022-10-26T11:27:26;8.50;;;4.50;;
32094;SDS011;18608;53.688;10.748;2022-10-26T11:30:05;7.87;;;5.30;;
32094;SDS011;18608;53.688;10.748;2022-10-26T11:35:36;13.50;;;5.00;;
32094;SDS011;18608;53.688;10.748;2022-10-26T11:38:16;14.53;;;5.10;;
32094;SDS011;18608;53.688;10.748;2022-10-26T11:43:56;5.70;;;4.50;;
32094;SDS011;18608;53.688;10.748;2022-10-26T11:46:43;7.17;;;4.47;;
32094;SDS011;18608;53.688;10.748;2022-10-26T11:49:15;15.40;;;4.83;;
32094;SDS011;18608;53.688;10.748;2022-10-26T11:54:46;4.40;;;4.07;;
32094;SDS011;18608;53.688;10.748;2022-10-26T11:57:16;4.03;;;3.20;;
32094;SDS011;18608;53.688;10.748;2022-10-26T11:59:44;7.30;;;4.23;;
32094;SDS011;18608;53.688;10.748;2022-10-26T12:02:17;12.03;;;5.13;;
32094;SDS011;18608;53.688;10.748;2022-10-26T12:04:47;6.50;;;3.07;;
32094;SDS011;18608;53.688;10.748;2022-10-26T12:07:31;6.40;;;3.83;;
32094;SDS011;18608;53.688;10.748;2022-10-26T12:10:00;5.20;;;2.93;;
32094;SDS011;18608;53.688;10.748;2022-10-26T12:12:31;8.57;;;3.97;;
32094;SDS011;18608;53.688;10.748;2022-10-26T12:15:05;7.67;;;3.90;;
32094;SDS011;18608;53.688;10.748;2022-10-26T12:18:12;5.87;;;3.23;;
32094;SDS011;18608;53.688;10.748;2022-10-26T12:23:18;5.27;;;3.43;;
32094;SDS011;18608;53.688;10.748;2022-10-26T12:25:45;4.17;;;2.80;;
32094;SDS011;18608;53.688;10.748;2022-10-26T12:34:02;3.43;;;3.10;;
32094;SDS011;18608;53.688;10.748;2022-10-26T12:46:57;8.80;;;2.20;;
32094;SDS011;18608;53.688;10.748;2022-10-26T12:55:14;4.63;;;2.20;;
32094;SDS011;18608;53.688;10.748;2022-10-26T13:00:40;3.00;;;2.70;;
32094;SDS011;18608;53.688;10.748;2022-10-26T13:03:35;8.10;;;2.80;;
32094;SDS011;18608;53.688;10.748;2022-10-26T13:09:26;6.10;;;2.63;;
32094;SDS011;18608;53.688;10.748;2022-10-26T13:11:57;10.03;;;3.20;;
32094;SDS011;18608;53.688;10.748;2022-10-26T13:14:27;4.40;;;2.23;;
32094;SDS011;18608;53.688;10.748;2022-10-26T13:17:05;5.03;;;2.80;;
32094;SDS011;18608;53.688;10.748;2022-10-26T13:19:48;2.97;;;2.20;;
32094;SDS011;18608;53.688;10.748;2022-10-26T13:22:20;2.80;;;2.20;;
32094;SDS011;18608;53.688;10.748;2022-10-26T13:24:47;4.00;;;2.27;;
32094;SDS011;18608;53.688;10.748;2022-10-26T13:30:09;2.77;;;2.30;;
32094;SDS011;18608;53.688;10.748;2022-10-26T13:32:42;10.63;;;2.30;;
32094;SDS011;18608;53.688;10.748;2022-10-26T13:35:20;5.07;;;2.73;;
32094;SDS011;18608;53.688;10.748;2022-10-26T13:37:49;5.30;;;3.20;;
32094;SDS011;18608;53.688;10.748;2022-10-26T13:40:18;3.87;;;2.30;;
32094;SDS011;18608;53.688;10.748;2022-10-26T13:42:47;3.20;;;2.50;;
32094;SDS011;18608;53.688;10.748;2022-10-26T13:45:25;2.90;;;2.23;;
32094;SDS011;18608;53.688;10.748;2022-10-26T13:47:57;10.20;;;2.90;;
32094;SDS011;18608;53.688;10.748;2022-10-26T13:50:31;4.10;;;2.57;;
32094;SDS011;18608;53.688;10.748;2022-10-26T13:56:05;3.13;;;2.53;;
32094;SDS011;18608;53.688;10.748;2022-10-26T13:58:57;9.13;;;2.97;;
32094;SDS011;18608;53.688;10.748;2022-10-26T14:01:26;3.60;;;2.67;;
32094;SDS011;18608;53.688;10.748;2022-10-26T14:03:53;10.13;;;2.77;;
32094;SDS011;18608;53.688;10.748;2022-10-26T14:06:23;4.40;;;2.93;;
32094;SDS011;18608;53.688;10.748;2022-10-26T14:08:54;5.00;;;3.40;;
32094;SDS011;18608;53.688;10.748;2022-10-26T14:11:30;3.77;;;2.20;;
32094;SDS011;18608;53.688;10.748;2022-10-26T14:14:10;6.00;;;2.50;;
32094;SDS011;18608;53.688;10.748;2022-10-26T14:16:49;4.83;;;3.00;;
32094;SDS011;18608;53.688;10.748;2022-10-26T14:19:19;6.53;;;2.77;;
32094;SDS011;18608;53.688;10.748;2022-10-26T14:21:49;3.97;;;2.30;;
32094;SDS011;18608;53.688;10.748;2022-10-26T14:24:20;5.53;;;3.37;;
32094;SDS011;18608;53.688;10.748;2022-10-26T14:26:48;8.00;;;3.37;;
32094;SDS011;18608;53.688;10.748;2022-10-26T14:29:15;4.83;;;2.27;;
32094;SDS011;18608;53.688;10.748;2022-10-26T14:31:42;4.73;;;3.10;;
32094;SDS011;18608;53.688;10.748;2022-10-26T14:34:08;5.40;;;2.77;;
32094;SDS011;18608;53.688;10.748;2022-10-26T14:36:38;4.70;;;3.03;;
32094;SDS011;18608;53.688;10.748;2022-10-26T14:39:06;4.50;;;3.20;;
32094;SDS011;18608;53.688;10.748;2022-10-26T14:41:40;8.43;;;2.60;;
32094;SDS011;18608;53.688;10.748;2022-10-26T14:44:12;9.10;;;3.03;;
32094;SDS011;18608;53.688;10.748;2022-10-26T14:46:45;6.83;;;2.70;;
32094;SDS011;18608;53.688;10.748;2022-10-26T14:49:29;10.10;;;3.07;;
32094;SDS011;18608;53.688;10.748;2022-10-26T14:51:56;6.47;;;2.37;;
32094;SDS011;18608;53.688;10.748;2022-10-26T14:54:23;4.50;;;2.40;;
32094;SDS011;18608;53.688;10.748;2022-10-26T14:56:51;5.10;;;2.13;;
32094;SDS011;18608;53.688;10.748;2022-10-26T14:59:21;6.30;;;2.73;;
32094;SDS011;18608;53.688;10.748;2022-10-26T15:04:37;4.90;;;3.00;;
32094;SDS011;18608;53.688;10.748;2022-10-26T15:17:40;8.03;;;2.53;;
32094;SDS011;18608;53.688;10.748;2022-10-26T15:20:13;2.60;;;2.40;;
32094;SDS011;18608;53.688;10.748;2022-10-26T15:22:42;6.10;;;2.60;;
32094;SDS011;18608;53.688;10.748;2022-10-26T15:25:19;8.10;;;3.80;;
32094;SDS011;18608;53.688;10.748;2022-10-26T15:27:47;5.77;;;2.93;;
32094;SDS011;18608;53.688;10.748;2022-10-26T15:30:16;6.90;;;3.40;;
32094;SDS011;18608;53.688;10.748;2022-10-26T15:32:50;3.70;;;2.50;;
32094;SDS011;18608;53.688;10.748;2022-10-26T15:37:53;4.50;;;2.53;;
32094;SDS011;18608;53.688;10.748;2022-10-26T15:40:20;6.70;;;2.67;;
32094;SDS011;18608;53.688;10.748;2022-10-26T15:42:47;9.43;;;2.83;;
32094;SDS011;18608;53.688;10.748;2022-10-26T15:45:19;3.17;;;2.87;;
32094;SDS011;18608;53.688;10.748;2022-10-26T15:47:54;4.70;;;2.87;;
32094;SDS011;18608;53.688;10.748;2022-10-26T15:50:23;7.90;;;2.67;;
32094;SDS011;18608;53.688;10.748;2022-10-26T15:52:59;5.80;;;2.57;;
32094;SDS011;18608;53.688;10.748;2022-10-26T15:55:29;3.73;;;2.93;;
32094;SDS011;18608;53.688;10.748;2022-10-26T15:57:55;12.50;;;4.00;;
32094;SDS011;18608;53.688;10.748;2022-10-26T16:00:21;7.33;;;3.07;;
32094;SDS011;18608;53.688;10.748;2022-10-26T16:02:46;4.53;;;3.53;;
32094;SDS011;18608;53.688;10.748;2022-10-26T16:05:13;4.20;;;2.87;;
32094;SDS011;18608;53.688;10.748;2022-10-26T16:07:40;12.63;;;4.30;;
32094;SDS011;18608;53.688;10.748;2022-10-26T16:10:17;9.97;;;3.37;;
32094;SDS011;18608;53.688;10.748;2022-10-26T16:12:46;8.90;;;3.20;;
32094;SDS011;18608;53.688;10.748;2022-10-26T16:15:14;6.20;;;3.33;;
32094;SDS011;18608;53.688;10.748;2022-10-26T16:17:44;6.80;;;3.37;;
32094;SDS011;18608;53.688;10.748;2022-10-26T16:20:14;6.33;;;3.83;;
32094;SDS011;18608;53.688;10.748;2022-10-26T16:22:47;5.90;;;3.07;;
32094;SDS011;18608;53.688;10.748;2022-10-26T16:25:17;6.80;;;4.60;;
32094;SDS011;18608;53.688;10.748;2022-10-26T16:27:45;11.80;;;3.33;;
32094;SDS011;18608;53.688;10.748;2022-10-26T16:30:11;5.00;;;3.70;;
32094;SDS011;18608;53.688;10.748;2022-10-26T16:32:38;3.27;;;2.90;;
32094;SDS011;18608;53.688;10.748;2022-10-26T16:35:04;3.53;;;2.93;;
32094;SDS011;18608;53.688;10.748;2022-10-26T16:37:31;9.40;;;3.30;;
32094;SDS011;18608;53.688;10.748;2022-10-26T16:39:57;9.70;;;3.33;;
32094;SDS011;18608;53.688;10.748;2022-10-26T16:42:23;7.90;;;3.47;;
32094;SDS011;18608;53.688;10.748;2022-10-26T16:44:49;9.27;;;4.00;;
32094;SDS011;18608;53.688;10.748;2022-10-26T16:47:15;5.50;;;3.80;;
32094;SDS011;18608;53.688;10.748;2022-10-26T16:49:41;8.13;;;3.30;;
32094;SDS011;18608;53.688;10.748;2022-10-26T16:52:10;4.43;;;3.67;;
32094;SDS011;18608;53.688;10.748;2022-10-26T16:54:36;8.33;;;3.40;;
32094;SDS011;18608;53.688;10.748;2022-10-26T16:57:02;3.73;;;3.30;;
32094;SDS011;18608;53.688;10.748;2022-10-26T16:59:29;7.87;;;4.70;;
32094;SDS011;18608;53.688;10.748;2022-10-26T17:01:54;9.73;;;4.77;;
32094;SDS011;18608;53.688;10.748;2022-10-26T17:04:20;6.17;;;4.27;;
32094;SDS011;18608;53.688;10.748;2022-10-26T17:06:46;5.43;;;3.70;;